Time;durP1;ratioP1;P1;durP2;ratioP2;P2;SDS_P1;SDS_P2;PMS_P1;PMS_P2;Temp;Humidity;BMP_temperature;BMP_pressure;BME280_temperature;BME280_humidity;BME280_pressure;Samples;Min_cycle;Max_cycle;Signal;HPM_P1;HPM_P2
2023/12/18 00:01:30;;;;;;;23.98;9.90;;;8.80;60.40;;;;;;4962893;28;20411;-48
2023/12/18 00:04:03;;;;;;;23.35;9.85;;;8.80;59.70;;;;;;4962312;28;20058;-47
2023/12/18 00:06:30;;;;;;;23.00;9.27;;;8.80;59.70;;;;;;4964624;28;20051;-46
2023/12/18 00:08:57;;;;;;;24.92;9.55;;;8.80;59.80;;;;;;4962985;28;20054;-47
2023/12/18 00:11:25;;;;;;;22.65;9.77;;;8.80;59.70;;;;;;4964405;28;20415;-49
2023/12/18 00:13:52;;;;;;;20.73;10.25;;;8.80;59.70;;;;;;4959482;28;20058;-50
2023/12/18 00:16:19;;;;;;;23.77;10.00;;;8.80;59.80;;;;;;4967691;28;20522;-47
2023/12/18 00:18:48;;;;;;;20.50;9.30;;;8.80;59.80;;;;;;4968902;28;20046;-50
2023/12/18 00:21:15;;;;;;;25.67;9.98;;;8.70;59.70;;;;;;4967681;28;20225;-48
2023/12/18 00:23:43;;;;;;;23.58;10.50;;;8.80;59.80;;;;;;4966267;28;20053;-42
2023/12/18 00:26:10;;;;;;;25.08;11.10;;;8.70;59.80;;;;;;4967895;28;20054;-45
2023/12/18 00:28:37;;;;;;;24.70;10.48;;;8.70;59.80;;;;;;4966155;28;20415;-48
2023/12/18 00:31:04;;;;;;;18.88;9.85;;;8.70;59.80;;;;;;4968723;28;20055;-49
2023/12/18 00:33:32;;;;;;;21.67;9.68;;;8.70;59.80;;;;;;4967709;28;20055;-48
2023/12/18 00:36:00;;;;;;;22.00;10.00;;;8.70;59.80;;;;;;4966308;28;20058;-46
2023/12/18 00:38:28;;;;;;;22.13;10.35;;;8.70;59.90;;;;;;4967953;28;20054;-43
2023/12/18 00:40:55;;;;;;;21.80;10.23;;;8.70;59.80;;;;;;4964457;28;20384;-45
2023/12/18 00:43:22;;;;;;;21.73;9.73;;;8.60;59.80;;;;;;4965613;28;20059;-48
2023/12/18 00:45:50;;;;;;;19.52;9.60;;;8.60;59.80;;;;;;4966953;28;20054;-50
2023/12/18 00:48:17;;;;;;;20.33;10.02;;;8.60;59.80;;;;;;4964788;28;20066;-48
2023/12/18 00:50:44;;;;;;;18.08;9.60;;;8.60;59.80;;;;;;4967588;28;20058;-51
2023/12/18 00:53:16;;;;;;;22.65;9.82;;;8.60;59.80;;;;;;4968281;28;20061;-48
2023/12/18 00:55:43;;;;;;;22.15;10.32;;;8.60;59.80;;;;;;4965028;28;20155;-46
2023/12/18 00:58:10;;;;;;;20.92;10.15;;;8.60;59.80;;;;;;4964868;28;20054;-46
2023/12/18 01:00:37;;;;;;;20.90;9.27;;;8.60;59.80;;;;;;4968460;28;20538;-50
2023/12/18 01:03:05;;;;;;;19.90;9.75;;;8.60;59.80;;;;;;4966107;28;20055;-47
2023/12/18 01:05:32;;;;;;;25.55;10.77;;;8.50;59.70;;;;;;4966062;28;20050;-48
2023/12/18 01:08:00;;;;;;;22.27;9.98;;;8.50;59.70;;;;;;4966178;28;20046;-47
2023/12/18 01:10:28;;;;;;;22.60;10.68;;;8.50;59.70;;;;;;4966603;28;20062;-46
2023/12/18 01:12:55;;;;;;;25.77;10.52;;;8.50;59.70;;;;;;4967100;28;20065;-44
2023/12/18 01:15:23;;;;;;;22.67;9.48;;;8.50;59.70;;;;;;4967264;28;20503;-47
2023/12/18 01:17:50;;;;;;;18.83;9.75;;;8.50;59.70;;;;;;4962429;28;20565;-42
2023/12/18 01:20:17;;;;;;;21.42;8.95;;;8.50;59.70;;;;;;4966990;28;20055;-50
2023/12/18 01:22:44;;;;;;;22.05;9.77;;;8.50;59.70;;;;;;4966763;28;20057;-48
2023/12/18 01:25:12;;;;;;;19.55;9.25;;;8.50;59.70;;;;;;4967392;28;20053;-48
2023/12/18 01:27:40;;;;;;;21.77;9.85;;;8.40;59.60;;;;;;4965827;28;20435;-45
2023/12/18 01:30:09;;;;;;;23.00;9.73;;;8.40;59.60;;;;;;4966402;28;20047;-50
2023/12/18 01:32:36;;;;;;;22.08;10.05;;;8.40;59.50;;;;;;4965356;28;20051;-45
2023/12/18 01:35:03;;;;;;;18.30;9.95;;;8.30;59.50;;;;;;4965128;28;20059;-50
2023/12/18 01:37:31;;;;;;;25.52;9.80;;;8.40;59.50;;;;;;4964814;28;20059;-43
2023/12/18 01:39:58;;;;;;;20.58;10.18;;;8.30;59.50;;;;;;4965311;28;20058;-46
2023/12/18 01:42:25;;;;;;;21.67;9.73;;;8.30;59.50;;;;;;4964408;28;20081;-39
2023/12/18 01:44:54;;;;;;;20.58;9.68;;;8.30;59.50;;;;;;4967182;28;20046;-48
2023/12/18 01:47:21;;;;;;;21.95;10.07;;;8.30;59.50;;;;;;4966484;28;20584;-46
2023/12/18 01:49:50;;;;;;;24.17;9.90;;;8.30;59.50;;;;;;4967045;28;20061;-44
2023/12/18 01:52:18;;;;;;;21.08;9.30;;;8.30;59.50;;;;;;4963714;28;20058;-46
2023/12/18 01:54:47;;;;;;;20.23;9.70;;;8.20;59.40;;;;;;4965364;28;20415;-50
2023/12/18 01:57:17;;;;;;;18.10;9.43;;;8.20;59.40;;;;;;4961886;28;20065;-49
2023/12/18 01:59:45;;;;;;;16.48;9.38;;;8.20;59.30;;;;;;4967614;28;20739;-45
2023/12/18 02:02:13;;;;;;;23.55;8.93;;;8.20;59.30;;;;;;4966253;28;20047;-43
2023/12/18 02:04:41;;;;;;;21.75;9.27;;;8.20;59.40;;;;;;4965402;28;20054;-46
2023/12/18 02:07:10;;;;;;;20.77;9.85;;;8.10;59.30;;;;;;4965893;28;20054;-42
2023/12/18 02:09:37;;;;;;;21.10;9.32;;;8.10;59.80;;;;;;4958821;28;20062;-47
2023/12/18 02:12:05;;;;;;;20.63;9.43;;;8.10;59.30;;;;;;4966180;28;20050;-43
2023/12/18 02:14:33;;;;;;;20.33;9.38;;;8.10;59.30;;;;;;4963303;28;20053;-47
2023/12/18 02:17:00;;;;;;;24.25;9.65;;;8.10;59.30;;;;;;4963064;28;20058;-48
2023/12/18 02:19:30;;;;;;;22.30;9.40;;;8.10;59.30;;;;;;4965193;28;20411;-47
2023/12/18 02:21:58;;;;;;;18.45;10.02;;;8.00;59.30;;;;;;4966362;28;20411;-43
2023/12/18 02:24:27;;;;;;;21.40;8.48;;;8.00;59.30;;;;;;4965541;28;20046;-49
2023/12/18 02:26:55;;;;;;;21.05;8.95;;;8.00;59.30;;;;;;4963217;28;20073;-47
2023/12/18 02:29:22;;;;;;;15.48;8.65;;;8.00;59.40;;;;;;4965705;28;20125;-46
2023/12/18 02:31:49;;;;;;;16.75;8.85;;;8.00;59.40;;;;;;4964623;28;20054;-49
2023/12/18 02:34:17;;;;;;;21.80;9.07;;;7.90;59.40;;;;;;4966091;28;20058;-50
2023/12/18 02:36:44;;;;;;;19.88;8.45;;;7.90;59.40;;;;;;4964254;28;20046;-46
2023/12/18 02:39:11;;;;;;;18.17;9.13;;;7.90;59.40;;;;;;4963220;28;20069;-46
2023/12/18 02:41:40;;;;;;;18.52;8.52;;;7.90;59.40;;;;;;4963399;28;20059;-49
2023/12/18 02:44:07;;;;;;;18.63;8.95;;;7.90;59.40;;;;;;4963877;28;20058;-47
2023/12/18 02:46:34;;;;;;;15.00;8.57;;;7.90;59.40;;;;;;4965623;28;20051;-47
2023/12/18 02:49:02;;;;;;;16.40;9.07;;;7.80;59.40;;;;;;4963493;28;20061;-50
2023/12/18 02:51:29;;;;;;;16.13;8.88;;;7.80;59.40;;;;;;4965234;28;20059;-45
2023/12/18 02:53:56;;;;;;;18.65;8.80;;;7.80;59.40;;;;;;4965460;28;20498;-42
2023/12/18 02:56:25;;;;;;;29.33;9.73;;;7.80;59.40;;;;;;4964023;28;20057;-42
2023/12/18 02:58:55;;;;;;;23.33;9.30;;;7.80;59.50;;;;;;4961091;28;20058;-49
2023/12/18 03:01:22;;;;;;;22.48;9.48;;;7.80;59.50;;;;;;4966445;28;20058;-47
2023/12/18 03:03:49;;;;;;;18.52;9.15;;;7.80;59.50;;;;;;4965731;28;20105;-47
2023/12/18 03:06:16;;;;;;;14.90;8.40;;;7.80;59.50;;;;;;4967941;28;20054;-47
2023/12/18 03:08:43;;;;;;;16.85;8.48;;;7.70;59.50;;;;;;4965270;28;20063;-48
2023/12/18 03:11:11;;;;;;;18.65;8.43;;;7.70;59.50;;;;;;4966056;28;20065;-45
2023/12/18 03:13:38;;;;;;;22.77;8.77;;;7.70;59.50;;;;;;4960586;28;20065;-49
2023/12/18 03:16:08;;;;;;;23.67;9.48;;;7.70;59.50;;;;;;4960876;28;20058;-43
2023/12/18 03:18:35;;;;;;;18.25;9.52;;;7.70;59.50;;;;;;4967440;28;20062;-49
2023/12/18 03:21:02;;;;;;;22.48;9.15;;;7.70;59.50;;;;;;4966087;28;20048;-42
2023/12/18 03:23:29;;;;;;;22.98;9.25;;;7.70;59.50;;;;;;4965651;28;20059;-44
2023/12/18 03:25:56;;;;;;;26.77;10.27;;;7.70;59.60;;;;;;4964179;28;20055;-46
2023/12/18 03:28:24;;;;;;;22.05;9.90;;;7.60;59.60;;;;;;4962447;28;20055;-45
2023/12/18 03:30:51;;;;;;;20.60;9.52;;;7.60;59.60;;;;;;4964017;28;20055;-49
2023/12/18 03:33:19;;;;;;;23.48;9.68;;;7.60;59.60;;;;;;4965860;28;20051;-45
2023/12/18 03:35:47;;;;;;;17.02;8.80;;;7.60;59.60;;;;;;4964993;28;20063;-46
2023/12/18 03:38:14;;;;;;;20.60;9.60;;;7.60;59.60;;;;;;4964062;28;20054;-44
2023/12/18 03:40:41;;;;;;;21.35;9.27;;;7.60;59.70;;;;;;4968197;28;20055;-41
2023/12/18 03:43:08;;;;;;;21.45;9.43;;;7.60;59.70;;;;;;4962974;28;20063;-48
2023/12/18 03:45:36;;;;;;;26.75;10.05;;;7.50;59.60;;;;;;4962692;28;20058;-50
2023/12/18 03:48:03;;;;;;;20.42;8.77;;;7.50;59.60;;;;;;4964232;28;20058;-42
2023/12/18 03:50:32;;;;;;;20.77;10.10;;;7.50;59.50;;;;;;4969226;28;20051;-47
2023/12/18 03:52:59;;;;;;;19.25;9.88;;;7.50;59.60;;;;;;4967959;28;20051;-47
2023/12/18 03:55:26;;;;;;;16.70;9.15;;;7.50;59.60;;;;;;4961090;28;20054;-46
2023/12/18 03:57:54;;;;;;;20.55;9.70;;;7.50;59.60;;;;;;4967676;28;20054;-49
2023/12/18 04:00:21;;;;;;;20.27;9.00;;;7.50;59.60;;;;;;4966093;28;20074;-42
2023/12/18 04:02:49;;;;;;;19.30;8.90;;;7.50;59.60;;;;;;4968577;28;20054;-46
2023/12/18 04:05:16;;;;;;;22.10;8.50;;;7.40;59.50;;;;;;4967272;28;20573;-44
2023/12/18 04:07:45;;;;;;;19.13;8.57;;;7.40;59.50;;;;;;4963864;28;20058;-43
2023/12/18 04:10:13;;;;;;;17.08;8.57;;;7.40;59.50;;;;;;4967652;28;20065;-49
2023/12/18 04:12:40;;;;;;;16.73;8.80;;;7.40;59.50;;;;;;4967036;28;20050;-41
2023/12/18 04:15:09;;;;;;;16.48;8.20;;;7.40;59.50;;;;;;4966863;28;20046;-48
2023/12/18 04:17:37;;;;;;;16.48;8.48;;;7.40;59.50;;;;;;4966271;28;20062;-40
2023/12/18 04:20:05;;;;;;;17.35;8.55;;;7.40;59.40;;;;;;4968601;28;20488;-37
2023/12/18 04:22:33;;;;;;;16.42;8.55;;;7.40;59.40;;;;;;4966877;28;20415;-36
2023/12/18 04:25:01;;;;;;;16.83;8.05;;;7.40;59.40;;;;;;4964954;28;20051;-37
2023/12/18 04:27:29;;;;;;;13.32;8.00;;;7.30;59.30;;;;;;4962335;28;20066;-37
2023/12/18 04:29:56;;;;;;;13.48;7.88;;;7.30;59.40;;;;;;4967197;28;20054;-37
2023/12/18 04:32:23;;;;;;;16.13;7.75;;;7.30;59.30;;;;;;4966331;28;20073;-36
2023/12/18 04:34:50;;;;;;;13.57;8.38;;;7.30;59.30;;;;;;4965855;28;20062;-37
2023/12/18 04:37:17;;;;;;;14.55;7.57;;;7.30;59.30;;;;;;4964579;28;20495;-37
2023/12/18 04:39:45;;;;;;;15.25;8.07;;;7.30;59.30;;;;;;4968915;28;20050;-36
2023/12/18 04:42:13;;;;;;;16.52;7.60;;;7.20;59.30;;;;;;4966608;28;20065;-37
2023/12/18 04:44:41;;;;;;;14.98;7.95;;;7.20;59.30;;;;;;4963407;28;20054;-36
2023/12/18 04:47:08;;;;;;;15.82;7.70;;;7.20;59.30;;;;;;4965343;28;20070;-36
2023/12/18 04:49:35;;;;;;;11.50;7.30;;;7.20;59.80;;;;;;4963765;28;20061;-36
2023/12/18 04:52:02;;;;;;;18.05;7.68;;;7.20;59.30;;;;;;4969759;28;20066;-37
2023/12/18 04:54:29;;;;;;;13.18;7.30;;;7.20;59.40;;;;;;4968075;28;20051;-36
2023/12/18 04:56:57;;;;;;;13.90;7.15;;;7.10;59.30;;;;;;4969891;28;20059;-37
2023/12/18 04:59:25;;;;;;;13.05;6.85;;;7.10;59.30;;;;;;4968543;28;20526;-37
2023/12/18 05:01:52;;;;;;;14.30;7.72;;;7.10;59.30;;;;;;4963669;28;20061;-36
2023/12/18 05:04:20;;;;;;;13.57;7.60;;;7.10;59.60;;;;;;4967606;28;20051;-37
2023/12/18 05:06:47;;;;;;;13.65;7.53;;;7.10;59.30;;;;;;4966037;28;20058;-37
2023/12/18 05:09:14;;;;;;;17.35;7.90;;;7.10;59.30;;;;;;4963158;28;20081;-36
2023/12/18 05:11:42;;;;;;;12.93;7.43;;;7.00;59.20;;;;;;4966184;28;20419;-37
2023/12/18 05:14:09;;;;;;;13.70;6.65;;;7.00;59.20;;;;;;4968627;28;20057;-36
2023/12/18 05:16:37;;;;;;;13.02;6.68;;;7.00;59.20;;;;;;4963116;28;20784;-36
2023/12/18 05:19:05;;;;;;;14.88;7.03;;;7.00;59.20;;;;;;4961498;28;20046;-36
2023/12/18 05:21:32;;;;;;;12.20;6.60;;;7.00;59.20;;;;;;4967323;28;20082;-37
2023/12/18 05:23:59;;;;;;;12.55;7.30;;;7.00;59.20;;;;;;4964342;28;20101;-36
2023/12/18 05:26:27;;;;;;;12.25;7.20;;;7.00;59.20;;;;;;4964746;28;20051;-37
2023/12/18 05:28:54;;;;;;;22.42;8.18;;;6.90;59.20;;;;;;4967638;28;20046;-45
2023/12/18 05:31:22;;;;;;;14.52;7.50;;;6.90;59.20;;;;;;4966663;28;20061;-45
2023/12/18 05:33:50;;;;;;;13.82;7.22;;;6.90;59.20;;;;;;4961869;28;20062;-43
2023/12/18 05:36:18;;;;;;;18.13;8.32;;;6.90;59.20;;;;;;4965095;28;20418;-49
2023/12/18 05:38:45;;;;;;;14.27;8.05;;;6.90;59.20;;;;;;4964750;28;20042;-41
2023/12/18 05:41:12;;;;;;;14.70;7.75;;;6.90;59.20;;;;;;4964048;28;20392;-45
2023/12/18 05:43:39;;;;;;;15.82;8.00;;;6.90;59.20;;;;;;4963559;28;20055;-48
2023/12/18 05:46:10;;;;;;;16.15;7.88;;;6.90;59.30;;;;;;4964847;28;20483;-45
2023/12/18 05:48:37;;;;;;;15.73;7.40;;;6.80;59.30;;;;;;4965213;28;20511;-42
2023/12/18 05:51:06;;;;;;;16.65;7.45;;;6.80;59.30;;;;;;4963389;28;20054;-45
2023/12/18 05:53:33;;;;;;;18.48;8.05;;;6.80;59.20;;;;;;4964217;28;20051;-48
2023/12/18 05:56:00;;;;;;;15.35;7.57;;;6.80;59.30;;;;;;4966828;28;20043;-44
2023/12/18 05:58:27;;;;;;;16.58;7.93;;;6.80;59.30;;;;;;4959962;28;20066;-46
2023/12/18 06:00:54;;;;;;;19.00;8.68;;;6.80;59.30;;;;;;4959543;28;20400;-47
2023/12/18 06:03:22;;;;;;;15.43;7.82;;;6.80;59.30;;;;;;4965689;28;20054;-48
2023/12/18 06:05:49;;;;;;;17.67;8.45;;;6.80;59.30;;;;;;4967959;28;20411;-44
2023/12/18 06:08:18;;;;;;;19.15;8.40;;;6.80;59.30;;;;;;4969069;28;20054;-48
2023/12/18 06:10:45;;;;;;;18.10;9.05;;;6.80;59.30;;;;;;4969925;28;20055;-47
2023/12/18 06:13:12;;;;;;;18.65;8.65;;;6.80;59.30;;;;;;4964407;28;20054;-42
2023/12/18 06:15:40;;;;;;;17.60;8.38;;;6.70;59.20;;;;;;4961573;28;20058;-48
2023/12/18 06:18:07;;;;;;;21.25;9.23;;;6.70;59.20;;;;;;4962838;28;20051;-46
2023/12/18 06:20:34;;;;;;;20.42;9.00;;;6.70;59.20;;;;;;4964024;28;20051;-47
2023/12/18 06:23:01;;;;;;;15.32;8.35;;;6.70;59.20;;;;;;4965312;28;20061;-42
2023/12/18 06:25:30;;;;;;;18.73;9.10;;;6.70;59.20;;;;;;4964928;28;20051;-46
2023/12/18 06:27:57;;;;;;;21.77;9.23;;;6.70;59.20;;;;;;4966484;28;20047;-47
2023/12/18 06:30:24;;;;;;;57.70;23.25;;;6.70;59.20;;;;;;4967785;28;20047;-47
2023/12/18 06:32:51;;;;;;;28.05;13.07;;;6.70;59.20;;;;;;4974902;28;20053;-43
2023/12/18 06:35:19;;;;;;;19.95;10.27;;;6.60;59.10;;;;;;4984954;28;20060;-49
2023/12/18 06:37:46;;;;;;;21.20;10.15;;;6.60;59.10;;;;;;4986117;28;20054;-45
2023/12/18 06:40:14;;;;;;;22.98;9.57;;;6.60;59.10;;;;;;4984748;28;20073;-37
2023/12/18 06:42:43;;;;;;;21.90;9.93;;;6.60;59.10;;;;;;4985329;28;20062;-37
2023/12/18 06:45:10;;;;;;;16.17;9.05;;;6.60;59.10;;;;;;4982090;28;20053;-37
2023/12/18 06:47:38;;;;;;;18.73;9.45;;;6.60;59.20;;;;;;4985241;28;20537;-36
2023/12/18 06:50:06;;;;;;;20.10;10.02;;;6.60;59.20;;;;;;4984590;28;20054;-36
2023/12/18 06:52:33;;;;;;;22.23;9.25;;;6.60;59.20;;;;;;4986055;28;20058;-36
2023/12/18 06:55:00;;;;;;;23.67;10.13;;;6.50;59.20;;;;;;4985340;28;20642;-37
2023/12/18 06:57:27;;;;;;;37.50;16.38;;;6.50;59.20;;;;;;4983436;28;20054;-37
2023/12/18 06:59:56;;;;;;;43.25;19.20;;;6.50;59.20;;;;;;4983935;28;20677;-36
2023/12/18 07:02:23;;;;;;;25.65;11.75;;;6.50;59.20;;;;;;4985498;28;20054;-36
2023/12/18 07:04:50;;;;;;;20.50;10.98;;;6.50;59.20;;;;;;4986204;28;20065;-36
2023/12/18 07:07:18;;;;;;;19.98;10.25;;;6.50;59.10;;;;;;4986139;28;20058;-36
2023/12/18 07:09:46;;;;;;;22.10;10.00;;;6.50;59.10;;;;;;4986382;28;20542;-36
2023/12/18 07:12:13;;;;;;;20.25;10.63;;;6.50;59.10;;;;;;4985993;28;20050;-36
2023/12/18 07:14:43;;;;;;;21.65;10.70;;;6.40;59.20;;;;;;4979928;28;20510;-36
2023/12/18 07:17:12;;;;;;;19.95;10.57;;;6.40;59.20;;;;;;4985460;28;20411;-36
2023/12/18 07:19:40;;;;;;;20.20;11.15;;;6.40;59.10;;;;;;4987091;28;20054;-36
2023/12/18 07:22:08;;;;;;;21.55;11.57;;;6.40;59.10;;;;;;4983404;28;20054;-37
2023/12/18 07:24:35;;;;;;;21.25;11.75;;;6.40;59.20;;;;;;4991876;28;20436;-36
2023/12/18 07:27:02;;;;;;;24.27;11.65;;;6.40;59.20;;;;;;4991667;28;20050;-37
2023/12/18 07:29:30;;;;;;;23.60;12.23;;;6.40;59.30;;;;;;4988278;28;20410;-37
2023/12/18 07:31:57;;;;;;;24.48;12.65;;;6.40;59.30;;;;;;4993898;28;20058;-36
2023/12/18 07:34:26;;;;;;;20.42;12.02;;;6.30;59.30;;;;;;4993291;28;20047;-37
2023/12/18 07:36:53;;;;;;;23.23;12.38;;;6.30;59.30;;;;;;4994567;28;20402;-37
2023/12/18 07:39:20;;;;;;;20.80;11.90;;;6.30;59.30;;;;;;4992390;28;20061;-36
2023/12/18 07:41:48;;;;;;;20.95;12.00;;;6.30;59.30;;;;;;4992864;28;20072;-36
2023/12/18 07:44:15;;;;;;;23.77;11.82;;;6.30;59.30;;;;;;4991930;28;20065;-36
2023/12/18 07:46:42;;;;;;;21.92;13.07;;;6.30;59.70;;;;;;4993848;28;20501;-36
2023/12/18 07:49:10;;;;;;;25.48;12.65;;;6.30;59.70;;;;;;4992261;28;20054;-49
2023/12/18 07:51:38;;;;;;;21.02;12.18;;;6.30;59.30;;;;;;4993614;28;20487;-49
2023/12/18 07:54:05;;;;;;;23.60;12.70;;;6.20;59.20;;;;;;4990513;28;20046;-47
2023/12/18 07:56:33;;;;;;;20.42;12.57;;;6.20;59.30;;;;;;4994019;28;20046;-48
2023/12/18 07:59:00;;;;;;;21.70;12.60;;;6.30;59.40;;;;;;4990920;28;20057;-47
2023/12/18 08:01:28;;;;;;;27.75;12.23;;;6.30;59.40;;;;;;4987590;28;20053;-46
2023/12/18 08:03:55;;;;;;;21.73;13.27;;;6.20;59.40;;;;;;4988635;28;20057;-40
2023/12/18 08:06:22;;;;;;;19.85;12.20;;;6.20;59.40;;;;;;4990381;28;20513;-48
2023/12/18 08:08:51;;;;;;;22.90;12.77;;;6.30;59.50;;;;;;4992935;28;20062;-46
2023/12/18 08:11:18;;;;;;;20.65;12.68;;;6.30;59.50;;;;;;4992193;28;20546;-44
2023/12/18 08:13:48;;;;;;;21.52;12.90;;;6.20;59.40;;;;;;4990629;28;20097;-49
2023/12/18 08:16:15;;;;;;;27.40;14.00;;;6.30;59.60;;;;;;4987199;28;20337;-47
2023/12/18 08:18:43;;;;;;;22.45;13.15;;;6.20;59.50;;;;;;4995640;28;20521;-48
2023/12/18 08:21:13;;;;;;;22.25;12.38;;;6.20;59.50;;;;;;4990450;28;20058;-45
2023/12/18 08:23:40;;;;;;;21.70;13.32;;;6.30;59.70;;;;;;4991151;28;20050;-47
2023/12/18 08:26:10;;;;;;;24.17;13.07;;;6.20;59.60;;;;;;4991954;28;20046;-46
2023/12/18 08:28:38;;;;;;;27.30;14.15;;;6.30;59.70;;;;;;4989451;28;20144;-47
2023/12/18 08:31:05;;;;;;;25.83;13.57;;;6.30;59.70;;;;;;4990922;28;20431;-47
2023/12/18 08:33:32;;;;;;;21.50;12.88;;;6.30;59.70;;;;;;4992055;28;20636;-44
2023/12/18 08:35:59;;;;;;;24.45;13.95;;;6.30;59.80;;;;;;4986848;28;20058;-47
2023/12/18 08:38:29;;;;;;;24.10;13.82;;;6.30;59.80;;;;;;4985327;28;20142;-44
2023/12/18 08:40:56;;;;;;;28.02;14.70;;;6.30;59.80;;;;;;4989380;28;20054;-45
2023/12/18 08:43:24;;;;;;;28.15;13.82;;;6.30;59.80;;;;;;4987811;28;20054;-48
2023/12/18 08:45:52;;;;;;;21.77;13.02;;;6.30;59.90;;;;;;4987660;28;20053;-50
2023/12/18 08:48:19;;;;;;;24.05;14.40;;;6.30;59.90;;;;;;4988545;28;20055;-46
2023/12/18 08:50:46;;;;;;;25.05;14.43;;;6.40;60.00;;;;;;4988409;28;20064;-47
2023/12/18 08:53:13;;;;;;;23.60;14.13;;;6.40;60.10;;;;;;4977005;28;20051;-47
2023/12/18 08:55:41;;;;;;;21.23;13.27;;;6.40;60.10;;;;;;4968971;28;20484;-44
2023/12/18 08:58:09;;;;;;;23.83;13.55;;;6.40;60.10;;;;;;4968288;28;20559;-49
2023/12/18 09:00:38;;;;;;;21.23;13.48;;;6.40;60.10;;;;;;4968562;28;20522;-49
2023/12/18 09:03:05;;;;;;;20.48;13.23;;;6.40;60.20;;;;;;4967179;28;20512;-42
2023/12/18 09:05:33;;;;;;;25.17;13.63;;;6.40;60.30;;;;;;4964276;28;20069;-48
2023/12/18 09:08:00;;;;;;;21.48;12.85;;;6.40;60.30;;;;;;4965769;28;20062;-40
2023/12/18 09:10:29;;;;;;;21.60;13.48;;;6.50;60.40;;;;;;4966127;28;20503;-46
2023/12/18 09:12:56;;;;;;;20.80;12.60;;;6.50;60.40;;;;;;4967229;28;20055;-44
2023/12/18 09:15:23;;;;;;;23.40;13.15;;;6.50;60.40;;;;;;4967210;28;20491;-45
2023/12/18 09:17:52;;;;;;;25.08;12.93;;;6.50;60.40;;;;;;4967854;28;20054;-45
2023/12/18 09:20:19;;;;;;;21.60;13.02;;;6.50;60.50;;;;;;4965323;28;20061;-43
2023/12/18 09:22:48;;;;;;;19.90;12.38;;;6.60;60.60;;;;;;4967852;28;20250;-43
2023/12/18 09:25:15;;;;;;;21.42;12.68;;;6.60;60.50;;;;;;4966446;28;20935;-43
2023/12/18 09:27:43;;;;;;;18.83;12.27;;;6.60;60.60;;;;;;4968002;28;20047;-49
2023/12/18 09:30:11;;;;;;;22.17;12.48;;;6.60;60.60;;;;;;4968118;28;20055;-47
2023/12/18 09:32:38;;;;;;;19.42;12.10;;;6.60;60.60;;;;;;4970274;28;20488;-48
2023/12/18 09:35:07;;;;;;;20.45;13.05;;;6.70;60.70;;;;;;4966358;28;20050;-46
2023/12/18 09:37:35;;;;;;;18.27;12.27;;;6.70;60.70;;;;;;4966394;28;20051;-42
2023/12/18 09:40:02;;;;;;;24.50;12.95;;;6.80;60.70;;;;;;4964927;28;20496;-48
2023/12/18 09:42:30;;;;;;;17.67;11.98;;;6.80;60.70;;;;;;4964308;28;20055;-48
2023/12/18 09:45:00;;;;;;;20.17;12.25;;;6.80;60.70;;;;;;4966421;28;20051;-49
2023/12/18 09:47:27;;;;;;;20.13;12.32;;;6.80;60.70;;;;;;4968238;28;20050;-45
2023/12/18 09:49:56;;;;;;;22.15;12.80;;;6.90;60.70;;;;;;4963045;28;20061;-44
2023/12/18 09:52:30;;;;;;;20.95;12.35;;;6.90;60.70;;;;;;4968102;28;20058;-42
2023/12/18 09:54:59;;;;;;;23.55;12.93;;;6.90;60.60;;;;;;4967353;28;20987;-42
2023/12/18 09:57:26;;;;;;;22.80;12.55;;;7.00;60.70;;;;;;4960601;28;20065;-49
2023/12/18 09:59:54;;;;;;;22.08;11.80;;;7.00;60.60;;;;;;4971007;28;20050;-40
2023/12/18 10:02:22;;;;;;;19.70;11.70;;;7.00;60.70;;;;;;4968292;28;20051;-45
2023/12/18 10:04:50;;;;;;;19.92;12.30;;;7.00;60.70;;;;;;4964496;28;20081;-49
2023/12/18 10:07:18;;;;;;;20.25;13.15;;;7.10;60.70;;;;;;4966394;28;20051;-50
2023/12/18 10:09:49;;;;;;;20.50;12.68;;;7.10;60.70;;;;;;4969350;28;20402;-50
2023/12/18 10:12:17;;;;;;;18.70;12.18;;;7.20;60.80;;;;;;4963266;28;20499;-48
2023/12/18 10:14:44;;;;;;;24.05;13.52;;;7.20;60.80;;;;;;4965447;28;20058;-49
2023/12/18 10:17:12;;;;;;;19.80;12.43;;;7.20;60.70;;;;;;4967012;28;20195;-48
2023/12/18 10:19:42;;;;;;;20.63;12.50;;;7.20;60.70;;;;;;4968630;28;21377;-43
2023/12/18 10:22:10;;;;;;;22.17;12.98;;;7.30;60.80;;;;;;4960784;28;20054;-49
2023/12/18 10:24:41;;;;;;;21.05;12.85;;;7.30;60.80;;;;;;4965599;28;20046;-44
2023/12/18 10:27:10;;;;;;;22.15;12.95;;;7.30;60.70;;;;;;4966346;28;20047;-47
2023/12/18 10:29:37;;;;;;;23.75;13.68;;;7.40;60.70;;;;;;4964158;28;20051;-50
2023/12/18 10:32:08;;;;;;;20.55;12.35;;;7.40;60.70;;;;;;4965193;28;20057;-47
2023/12/18 10:34:37;;;;;;;22.50;12.85;;;7.40;60.60;;;;;;4966077;28;20415;-45
2023/12/18 10:37:06;;;;;;;22.58;12.98;;;7.40;60.70;;;;;;4964562;28;20047;-49
2023/12/18 10:39:37;;;;;;;22.60;13.40;;;7.50;60.80;;;;;;4965872;28;20063;-49
2023/12/18 10:42:13;;;;;;;22.15;13.15;;;7.50;60.80;;;;;;4964130;28;20070;-47
2023/12/18 10:44:42;;;;;;;21.20;13.38;;;7.50;60.80;;;;;;4944916;28;20066;-46
2023/12/18 10:47:10;;;;;;;20.23;12.25;;;7.60;60.90;;;;;;4949677;28;20070;-46
2023/12/18 10:49:39;;;;;;;20.23;11.93;;;7.60;60.90;;;;;;4954381;28;20070;-49
2023/12/18 10:52:08;;;;;;;23.92;13.30;;;7.70;60.90;;;;;;4949186;28;20059;-50
2023/12/18 10:54:37;;;;;;;18.52;12.00;;;7.70;61.00;;;;;;4948678;28;20055;-47
2023/12/18 10:57:07;;;;;;;23.35;12.50;;;7.70;61.00;;;;;;4946791;28;20488;-44
2023/12/18 10:59:38;;;;;;;21.08;12.45;;;7.80;61.10;;;;;;4947053;28;20515;-47
2023/12/18 11:02:08;;;;;;;20.50;12.23;;;7.80;61.10;;;;;;4948624;28;20052;-46
2023/12/18 11:04:36;;;;;;;22.75;13.50;;;7.90;61.10;;;;;;4949419;28;20074;-40
2023/12/18 11:07:05;;;;;;;18.45;12.02;;;7.90;61.20;;;;;;4946700;28;20051;-43
2023/12/18 11:09:34;;;;;;;25.55;14.20;;;7.90;61.20;;;;;;4947199;28;20062;-46
2023/12/18 11:12:02;;;;;;;18.95;11.52;;;8.00;61.30;;;;;;4945057;28;20055;-45
2023/12/18 11:14:44;;;;;;;22.20;11.85;;;8.00;61.30;;;;;;4942208;28;20496;-47
2023/12/18 11:17:24;;;;;;;20.70;11.85;;;8.00;61.20;;;;;;4946109;28;20082;-40
2023/12/18 11:19:58;;;;;;;20.23;11.30;;;8.10;61.20;;;;;;4947486;28;20055;-46
2023/12/18 11:22:39;;;;;;;20.10;11.45;;;8.20;61.20;;;;;;4943342;28;20480;-39
2023/12/18 11:25:07;;;;;;;19.65;11.50;;;8.20;61.10;;;;;;4945507;28;20051;-50
2023/12/18 11:27:35;;;;;;;19.33;11.30;;;8.20;61.00;;;;;;4946676;28;20055;-49
2023/12/18 11:30:04;;;;;;;19.67;11.60;;;8.20;60.90;;;;;;4948570;28;20047;-50
2023/12/18 11:32:41;;;;;;;17.13;10.05;;;8.30;61.00;;;;;;4949254;28;20437;-50
2023/12/18 11:35:10;;;;;;;19.45;10.65;;;8.30;60.90;;;;;;4950153;28;20063;-49
2023/12/18 11:37:47;;;;;;;18.17;11.13;;;8.40;60.90;;;;;;4948936;28;20128;-43
2023/12/18 11:40:36;;;;;;;19.08;11.15;;;8.40;60.60;;;;;;4950044;28;20055;-48
2023/12/18 11:43:05;;;;;;;16.20;9.82;;;8.40;60.20;;;;;;4949375;28;20499;-41
2023/12/18 11:45:38;;;;;;;18.27;10.13;;;8.50;60.30;;;;;;4968205;28;20059;-47
2023/12/18 11:48:06;;;;;;;15.40;9.90;;;8.50;60.20;;;;;;4967194;28;20047;-49
2023/12/18 11:50:36;;;;;;;17.45;10.80;;;8.50;60.10;;;;;;4968756;28;20419;-48
2023/12/18 11:53:07;;;;;;;18.05;9.50;;;8.60;60.20;;;;;;4956950;28;20058;-50
2023/12/18 11:55:46;;;;;;;16.65;9.68;;;8.60;60.10;;;;;;4969908;28;20050;-49
2023/12/18 11:58:15;;;;;;;15.85;9.38;;;8.60;59.90;;;;;;4968589;28;20460;-47
2023/12/18 12:00:44;;;;;;;15.63;9.10;;;8.60;59.80;;;;;;4965239;28;20067;-48
2023/12/18 12:03:12;;;;;;;14.52;9.90;;;8.70;59.70;;;;;;4968489;28;20065;-50
2023/12/18 12:05:40;;;;;;;16.77;9.88;;;8.70;59.60;;;;;;4968901;28;20058;-49
2023/12/18 12:08:10;;;;;;;15.48;9.75;;;8.70;59.60;;;;;;4962977;28;20059;-49
2023/12/18 12:10:42;;;;;;;17.30;9.95;;;8.80;59.60;;;;;;4963160;28;20442;-44
2023/12/18 12:13:17;;;;;;;15.95;9.35;;;8.80;59.50;;;;;;4968597;28;20051;-42
2023/12/18 12:15:56;;;;;;;17.02;9.48;;;8.80;59.50;;;;;;4970464;28;20502;-50
2023/12/18 12:18:26;;;;;;;14.43;8.80;;;8.80;59.40;;;;;;4972432;28;20085;-46
2023/12/18 12:20:53;;;;;;;18.15;9.80;;;8.90;59.40;;;;;;4973108;28;20062;-50
2023/12/18 12:23:21;;;;;;;15.07;9.63;;;8.90;59.30;;;;;;4971152;28;20058;-48
2023/12/18 12:25:49;;;;;;;17.60;9.93;;;8.90;59.30;;;;;;4972351;28;20487;-43
2023/12/18 12:28:17;;;;;;;15.23;9.20;;;9.00;59.30;;;;;;4971311;28;20500;-46
2023/12/18 12:30:45;;;;;;;15.98;8.43;;;9.00;59.20;;;;;;4972867;28;20054;-36
2023/12/18 12:33:16;;;;;;;16.75;9.60;;;9.00;59.10;;;;;;4972035;28;20303;-36
2023/12/18 12:35:44;;;;;;;18.38;9.25;;;9.00;58.90;;;;;;4971960;28;20065;-36
2023/12/18 12:38:11;;;;;;;15.57;8.60;;;9.10;58.90;;;;;;4972084;28;20526;-37
2023/12/18 12:40:40;;;;;;;15.88;9.40;;;9.10;58.80;;;;;;4970932;28;20070;-36
2023/12/18 12:43:07;;;;;;;18.10;9.25;;;9.10;58.70;;;;;;4970857;28;20061;-37
2023/12/18 12:45:36;;;;;;;15.13;9.02;;;9.10;58.70;;;;;;4971811;28;20047;-36
2023/12/18 12:48:06;;;;;;;16.02;9.45;;;9.10;58.60;;;;;;4972435;28;20462;-36